Cinzia A — TCA4007 — position and weather

sailwx.info

Track history (hours):
 
Tides and Currents Weather Stations Pressure Air Temp Water Temp Dewpoint Dewpoint Depression Visibility Wind Speed Wind Dir Waves Ship Positions

Cinzia A

Last reported at 2018-Jan-20 09:08 UTC. Time now 2018-Jan-21 08:38 UTC.
Position N 39°38' W 000°01'.

Length 200 m; draft 9.1 m.

Type: Ship (hazmat cat A). MMSI: 271044448.

Date/timePositionNaut miles runAvg speedWind from/ knotsBaromVisibWave heightAir tempDewpointWater temp
2018-Jan-20 09:08N 39°38' W 000°01'611.0
2018-Jan-20 08:36N 39°33' W 000°06'111.2
2018-Jan-20 08:30N 39°33' W 000°07'611.2
2018-Jan-20 08:00N 39°28' W 000°11'611.2
2018-Jan-20 07:30N 39°26' W 000°18'2 3.8
2018-Jan-20 07:00N 39°27' W 000°19'0 0.0
2018-Jan-20 06:30N 39°27' W 000°19'0 0.0
2018-Jan-20 05:55N 39°27' W 000°19'0 0.0
2018-Jan-20 05:30N 39°27' W 000°19'0 0.0
2018-Jan-20 04:57N 39°27' W 000°19'0 0.0
2018-Jan-20 04:24N 39°27' W 000°19'0 0.0
2018-Jan-20 04:00N 39°27' W 000°19'0 0.0
2018-Jan-20 03:29N 39°27' W 000°19'0 0.0
2018-Jan-20 02:50N 39°27' W 000°19'0 0.0
2018-Jan-20 02:26N 39°27' W 000°19'0 0.0
2018-Jan-20 01:56N 39°27' W 000°19'0 0.0
2018-Jan-20 01:26N 39°27' W 000°19'0 0.0
2018-Jan-20 01:00N 39°27' W 000°19'0 0.0
2018-Jan-20 00:30N 39°27' W 000°19'0 0.0
2018-Jan-20 00:00N 39°27' W 000°19'0 0.0
2018-Jan-19 18:01N 39°27' W 000°19'0 0.0
2018-Jan-19 16:16N 39°27' W 000°19'0 0.0
2018-Jan-19 15:55N 39°27' W 000°19'0 0.0
2018-Jan-19 15:30N 39°27' W 000°19'0 0.0
2018-Jan-19 15:00N 39°27' W 000°19'0 0.0
2018-Jan-19 14:28N 39°27' W 000°19'0 0.0
2018-Jan-19 13:53N 39°27' W 000°19'0 0.0
2018-Jan-19 13:27N 39°27' W 000°19'0 0.0
2018-Jan-19 12:59N 39°27' W 000°19'0 0.0
2018-Jan-19 12:29N 39°27' W 000°19'0 0.0
2018-Jan-19 12:00N 39°27' W 000°19'1 2.2
2018-Jan-19 11:31N 39°26' W 000°19'3 6.4
2018-Jan-19 11:00N 39°25' W 000°15'611.2
2018-Jan-19 10:30N 39°20' W 000°10'8911.6
2018-Jan-19 02:49N 37°51' W 000°15'614.6
2018-Jan-19 02:26N 37°47' W 000°19'614.4
2018-Jan-19 02:00N 37°41' W 000°24'714.3
2018-Jan-19 01:30N 37°35' W 000°29'713.8
2018-Jan-19 01:00N 37°30' W 000°35'713.9
2018-Jan-19 00:30N 37°26' W 000°41'713.8
2018-Jan-19 00:00N 37°21' W 000°48'713.7
2018-Jan-18 23:30N 37°17' W 000°54'19512.9
2018-Jan-18 08:21N 36°04' W 004°40'514.1
2018-Jan-18 08:01N 36°04' W 004°46'714.0
2018-Jan-18 07:30N 36°02' W 004°55'814.3
2018-Jan-18 06:59N 35°60' W 005°04'613.3
2018-Jan-18 06:30N 35°59' W 005°11'510.1
2018-Jan-18 06:00N 35°58' W 005°18'3 5.8
2018-Jan-18 05:30N 35°58' W 005°21'3 5.2
2018-Jan-18 05:00N 35°57' W 005°24'2 4.9
2018-Jan-18 04:30N 35°56' W 005°27'2 4.6
2018-Jan-18 04:00N 35°56' W 005°30'2 3.2
2018-Jan-18 03:31N 35°55' W 005°30'1 1.7
2018-Jan-18 03:01N 35°54' W 005°29'0 0.0
2018-Jan-18 02:31N 35°54' W 005°29'0 0.0
2018-Jan-18 02:01N 35°54' W 005°29'0 0.0
2018-Jan-18 01:30N 35°54' W 005°29'0 0.0
2018-Jan-18 01:00N 35°54' W 005°29'0 0.0
2018-Jan-17 23:59N 35°54' W 005°29'0 0.1
2018-Jan-17 23:50N 35°54' W 005°29'  
2018-Jan-11 09:14N 37°12' E 023°39'412.1
2018-Jan-11 08:51N 37°17' E 023°41'1312.2
2018-Jan-11 07:47N 37°29' E 023°47'312.0
2018-Jan-11 07:30N 37°32' E 023°46'612.2
2018-Jan-11 07:00N 37°38' E 023°43'612.4
2018-Jan-11 06:30N 37°44' E 023°40'612.2
2018-Jan-11 06:00N 37°49' E 023°37'611.7
2018-Jan-11 05:30N 37°55' E 023°37'3 5.0
2018-Jan-11 05:00N 37°57' E 023°35'0 0.0
2018-Jan-11 04:30N 37°57' E 023°35'0 0.0
2018-Jan-11 04:00N 37°57' E 023°35'0 0.0
2018-Jan-11 03:30N 37°57' E 023°35'0 0.0
2018-Jan-11 02:58N 37°57' E 023°35'0 0.0
2018-Jan-11 02:29N 37°57' E 023°35'0 0.0
2018-Jan-11 01:58N 37°57' E 023°35'0 0.0
2018-Jan-11 01:28N 37°57' E 023°35'0 0.0
2018-Jan-11 00:58N 37°57' E 023°35'0 0.0
2018-Jan-11 00:30N 37°57' E 023°35'0 0.0
2018-Jan-11 00:00N 37°57' E 023°35'0 0.0
2018-Jan-10 23:27N 37°57' E 023°35'0 0.0
2018-Jan-10 23:00N 37°57' E 023°35'0 0.0
2018-Jan-10 22:30N 37°57' E 023°35'0 0.0
2018-Jan-10 22:00N 37°57' E 023°35'0 0.0
2018-Jan-10 21:30N 37°57' E 023°35'0 0.0
2018-Jan-10 21:00N 37°57' E 023°35'0 0.0
2018-Jan-10 20:30N 37°57' E 023°35'0 0.0
2018-Jan-10 20:00N 37°57' E 023°35'0 0.0
2018-Jan-10 19:30N 37°57' E 023°35'0 0.0
2018-Jan-10 19:00N 37°57' E 023°35'0 0.0
2018-Jan-10 18:30N 37°57' E 023°35'0 0.0
2018-Jan-10 18:00N 37°57' E 023°35'0 0.0
2018-Jan-10 17:30N 37°57' E 023°35'0 0.0
2018-Jan-10 17:00N 37°57' E 023°35'0 0.0
2018-Jan-10 16:30N 37°57' E 023°35'0 0.0
2018-Jan-10 16:00N 37°57' E 023°35'0 0.0
2018-Jan-10 15:30N 37°57' E 023°35'0 0.0
2018-Jan-10 14:59N 37°57' E 023°35'0 0.0
2018-Jan-10 14:31N 37°57' E 023°35'0 0.0
2018-Jan-10 13:58N 37°57' E 023°35'0 0.0
2018-Jan-10 13:30N 37°57' E 023°35'1 2.3
2018-Jan-10 13:00N 37°56' E 023°35'2 3.4
2018-Jan-10 12:30N 37°55' E 023°36'1 2.0
2018-Jan-10 12:01N 37°54' E 023°35'3 6.0
2018-Jan-10 11:30N 37°52' E 023°33'1 1.8
2018-Jan-10 10:58N 37°52' E 023°32'0 0.0
2018-Jan-10 10:28N 37°52' E 023°32'0 0.0
2018-Jan-10 09:58N 37°52' E 023°32'0 0.1
2018-Jan-10 09:28N 37°52' E 023°32'  
Track history (hours):
 
Tides and Currents Weather Stations Pressure Air Temp Water Temp Dewpoint Dewpoint Depression Visibility Wind Speed Wind Dir Waves Ship Positions

Cinzia A

Last reported at 2018-Jan-20 09:08 UTC. Time now 2018-Jan-21 08:38 UTC.
Position N 39°38' W 000°01'.

Length 200 m; draft 9.1 m.

Type: Ship (hazmat cat A). MMSI: 271044448.

Date/timePositionNaut miles runAvg speedWind from/ knotsBaromVisibWave heightAir tempDewpointWater temp
2018-Jan-20 09:08N 39°38' W 000°01'611.0
2018-Jan-20 08:36N 39°33' W 000°06'111.2
2018-Jan-20 08:30N 39°33' W 000°07'611.2
2018-Jan-20 08:00N 39°28' W 000°11'611.2
2018-Jan-20 07:30N 39°26' W 000°18'2 3.8
2018-Jan-20 07:00N 39°27' W 000°19'0 0.0
2018-Jan-20 06:30N 39°27' W 000°19'0 0.0
2018-Jan-20 05:55N 39°27' W 000°19'0 0.0
2018-Jan-20 05:30N 39°27' W 000°19'0 0.0
2018-Jan-20 04:57N 39°27' W 000°19'0 0.0
2018-Jan-20 04:24N 39°27' W 000°19'0 0.0
2018-Jan-20 04:00N 39°27' W 000°19'0 0.0
2018-Jan-20 03:29N 39°27' W 000°19'0 0.0
2018-Jan-20 02:50N 39°27' W 000°19'0 0.0
2018-Jan-20 02:26N 39°27' W 000°19'0 0.0
2018-Jan-20 01:56N 39°27' W 000°19'0 0.0
2018-Jan-20 01:26N 39°27' W 000°19'0 0.0
2018-Jan-20 01:00N 39°27' W 000°19'0 0.0
2018-Jan-20 00:30N 39°27' W 000°19'0 0.0
2018-Jan-20 00:00N 39°27' W 000°19'0 0.0
2018-Jan-19 18:01N 39°27' W 000°19'0 0.0
2018-Jan-19 16:16N 39°27' W 000°19'0 0.0
2018-Jan-19 15:55N 39°27' W 000°19'0 0.0
2018-Jan-19 15:30N 39°27' W 000°19'0 0.0
2018-Jan-19 15:00N 39°27' W 000°19'0 0.0
2018-Jan-19 14:28N 39°27' W 000°19'0 0.0
2018-Jan-19 13:53N 39°27' W 000°19'0 0.0
2018-Jan-19 13:27N 39°27' W 000°19'0 0.0
2018-Jan-19 12:59N 39°27' W 000°19'0 0.0
2018-Jan-19 12:29N 39°27' W 000°19'0 0.0
2018-Jan-19 12:00N 39°27' W 000°19'1 2.2
2018-Jan-19 11:31N 39°26' W 000°19'3 6.4
2018-Jan-19 11:00N 39°25' W 000°15'611.2
2018-Jan-19 10:30N 39°20' W 000°10'8911.6
2018-Jan-19 02:49N 37°51' W 000°15'614.6
2018-Jan-19 02:26N 37°47' W 000°19'614.4
2018-Jan-19 02:00N 37°41' W 000°24'714.3
2018-Jan-19 01:30N 37°35' W 000°29'713.8
2018-Jan-19 01:00N 37°30' W 000°35'713.9
2018-Jan-19 00:30N 37°26' W 000°41'713.8
2018-Jan-19 00:00N 37°21' W 000°48'713.7
2018-Jan-18 23:30N 37°17' W 000°54'19512.9
2018-Jan-18 08:21N 36°04' W 004°40'514.1
2018-Jan-18 08:01N 36°04' W 004°46'714.0
2018-Jan-18 07:30N 36°02' W 004°55'814.3
2018-Jan-18 06:59N 35°60' W 005°04'613.3
2018-Jan-18 06:30N 35°59' W 005°11'510.1
2018-Jan-18 06:00N 35°58' W 005°18'3 5.8
2018-Jan-18 05:30N 35°58' W 005°21'3 5.2
2018-Jan-18 05:00N 35°57' W 005°24'2 4.9
2018-Jan-18 04:30N 35°56' W 005°27'2 4.6
2018-Jan-18 04:00N 35°56' W 005°30'2 3.2
2018-Jan-18 03:31N 35°55' W 005°30'1 1.7
2018-Jan-18 03:01N 35°54' W 005°29'0 0.0
2018-Jan-18 02:31N 35°54' W 005°29'0 0.0
2018-Jan-18 02:01N 35°54' W 005°29'0 0.0
2018-Jan-18 01:30N 35°54' W 005°29'0 0.0
2018-Jan-18 01:00N 35°54' W 005°29'0 0.0
2018-Jan-17 23:59N 35°54' W 005°29'0 0.1
2018-Jan-17 23:50N 35°54' W 005°29'  
2018-Jan-11 09:14N 37°12' E 023°39'412.1
2018-Jan-11 08:51N 37°17' E 023°41'1312.2
2018-Jan-11 07:47N 37°29' E 023°47'312.0
2018-Jan-11 07:30N 37°32' E 023°46'612.2
2018-Jan-11 07:00N 37°38' E 023°43'612.4
2018-Jan-11 06:30N 37°44' E 023°40'612.2
2018-Jan-11 06:00N 37°49' E 023°37'611.7
2018-Jan-11 05:30N 37°55' E 023°37'3 5.0
2018-Jan-11 05:00N 37°57' E 023°35'0 0.0
2018-Jan-11 04:30N 37°57' E 023°35'0 0.0
2018-Jan-11 04:00N 37°57' E 023°35'0 0.0
2018-Jan-11 03:30N 37°57' E 023°35'0 0.0
2018-Jan-11 02:58N 37°57' E 023°35'0 0.0
2018-Jan-11 02:29N 37°57' E 023°35'0 0.0
2018-Jan-11 01:58N 37°57' E 023°35'0 0.0
2018-Jan-11 01:28N 37°57' E 023°35'0 0.0
2018-Jan-11 00:58N 37°57' E 023°35'0 0.0
2018-Jan-11 00:30N 37°57' E 023°35'0 0.0
2018-Jan-11 00:00N 37°57' E 023°35'0 0.0
2018-Jan-10 23:27N 37°57' E 023°35'0 0.0
2018-Jan-10 23:00N 37°57' E 023°35'0 0.0
2018-Jan-10 22:30N 37°57' E 023°35'0 0.0
2018-Jan-10 22:00N 37°57' E 023°35'0 0.0
2018-Jan-10 21:30N 37°57' E 023°35'0 0.0
2018-Jan-10 21:00N 37°57' E 023°35'0 0.0
2018-Jan-10 20:30N 37°57' E 023°35'0 0.0
2018-Jan-10 20:00N 37°57' E 023°35'0 0.0
2018-Jan-10 19:30N 37°57' E 023°35'0 0.0
2018-Jan-10 19:00N 37°57' E 023°35'0 0.0
2018-Jan-10 18:30N 37°57' E 023°35'0 0.0
2018-Jan-10 18:00N 37°57' E 023°35'0 0.0
2018-Jan-10 17:30N 37°57' E 023°35'0 0.0
2018-Jan-10 17:00N 37°57' E 023°35'0 0.0
2018-Jan-10 16:30N 37°57' E 023°35'0 0.0
2018-Jan-10 16:00N 37°57' E 023°35'0 0.0
2018-Jan-10 15:30N 37°57' E 023°35'0 0.0
2018-Jan-10 14:59N 37°57' E 023°35'0 0.0
2018-Jan-10 14:31N 37°57' E 023°35'0 0.0
2018-Jan-10 13:58N 37°57' E 023°35'0 0.0
2018-Jan-10 13:30N 37°57' E 023°35'1 2.3
2018-Jan-10 13:00N 37°56' E 023°35'2 3.4
2018-Jan-10 12:30N 37°55' E 023°36'1 2.0
2018-Jan-10 12:01N 37°54' E 023°35'3 6.0
2018-Jan-10 11:30N 37°52' E 023°33'1 1.8
2018-Jan-10 10:58N 37°52' E 023°32'0 0.0
2018-Jan-10 10:28N 37°52' E 023°32'0 0.0
2018-Jan-10 09:58N 37°52' E 023°32'0 0.1
2018-Jan-10 09:28N 37°52' E 023°32'  

Dump ship's entire track history